Main page
METAR-TAF:

METAR-TAF

Airports :

Novosibirsk, Russia

Tolmachevo Airport

latitude: 55-01N, longitude: 082-38E, elevation: 111 m

Current weather observation

The report was made 35 minutes ago, at 01:30 UTC
Wind 6 kt from the South
Temperature 21°C
Humidity 73%
Pressure 1012 hPa
Visibility 10 km or more
no clouds below 1500 m and no cumulonimbus

METAR: UNNT 290130Z 17003MPS CAVOK 21/16 Q1012 R25/090070 R16/090070 NOSIG RMK QFE749/0999

Time: 09:05 (02:05 UTC)

Forecast

The report was made 3 hours and 5 minutes ago, at 23:00 UTC
Forecast valid from 29 at 00 UTC to 29 at 24 UTC
Wind 2 kt from variable directions
Visibility 10 km or more
no clouds below 1500 m and no cumulonimbus

TAF: UNNT 282300Z 2900/2924 VRB01MPS CAVOK

Weather observations and forecasts of more than 4000 airports (METAR and TAF reports).

The available stations are represented by yellow and red dots on the map.

Hover mouse over dot to see the name of the station.

Then click to see weather observations and forecasts.

To change the map : click on the green buttons with a black cross to zoom in, on the green button with a dash to zoom out, or on the green arrows for adjacent maps.


METAR-TAF: